Time;durP1;ratioP1;P1;durP2;ratioP2;P2;SDS_P1;SDS_P2;PMS_P1;PMS_P2;Temp;Humidity;BMP_temperature;BMP_pressure;BME280_temperature;BME280_humidity;BME280_pressure;Samples;Min_cycle;Max_cycle;Signal;HPM_P1;HPM_P2
2021/04/16 04:59:07;;;;;;;;;;;;;;;2.89;100.00;97515.16;1740078;78;20556;-63
2021/04/16 05:01:35;;;;;;;;;;;;;;;3.02;100.00;97511.77;1680854;83;22041;-63
2021/04/16 05:04:05;;;;;;;;;;;;;;;3.09;100.00;97509.96;1681087;85;20490;-63
2021/04/16 05:06:33;;;;;;;;;;;;;;;3.18;100.00;97508.72;1682129;83;20580;-65
2021/04/16 05:09:02;;;;;;;;;;;;;;;3.29;100.00;97508.61;1683088;83;20497;-64
2021/04/16 05:11:31;;;;;;;;;;;;;;;3.41;99.47;97504.37;1676079;84;20601;-63
2021/04/16 05:13:59;;;;;;;;;;;;;;;3.51;99.39;97505.55;1689170;83;22154;-68
2021/04/16 05:16:29;;;;;;;;;;;;;;;3.61;99.33;97505.59;1682484;84;20323;-66
2021/04/16 05:19:00;;;;;;;;;;;;;;;3.68;99.21;97501.95;1691801;83;20216;-61
2021/04/16 05:21:36;;;;;;;;;;;;;;;3.75;98.89;97507.92;1690375;83;20489;-69
2021/04/16 05:24:06;;;;;;;;;;;;;;;3.82;99.44;97507.39;1682933;84;20495;-63
2021/04/16 05:26:35;;;;;;;;;;;;;;;3.93;98.75;97506.75;1682159;84;21908;-62
2021/04/16 05:29:03;;;;;;;;;;;;;;;4.07;97.89;97511.88;1680495;83;20523;-61
2021/04/16 05:31:31;;;;;;;;;;;;;;;4.19;96.71;97508.39;1681579;83;20312;-61
2021/04/16 05:33:59;;;;;;;;;;;;;;;4.33;95.92;97513.00;1682608;83;20486;-64
2021/04/16 05:36:27;;;;;;;;;;;;;;;4.43;95.78;97505.53;1679927;83;20555;-65
2021/04/16 05:38:55;;;;;;;;;;;;;;;4.52;95.69;97508.17;1686572;83;21929;-64
2021/04/16 05:41:23;;;;;;;;;;;;;;;4.63;91.22;97504.07;1680791;83;20602;-63
2021/04/16 05:43:52;;;;;;;;;;;;;;;4.74;87.90;97507.80;1678195;83;20569;-60
2021/04/16 05:46:21;;;;;;;;;;;;;;;4.84;87.75;97505.50;1678456;83;20525;-62
2021/04/16 05:48:49;;;;;;;;;;;;;;;4.90;86.48;97507.27;1686279;83;20786;-64
2021/04/16 05:51:20;;;;;;;;;;;;;;;4.93;85.25;97503.72;1679905;83;21208;-67
2021/04/16 05:53:48;;;;;;;;;;;;;;;5.00;84.79;97508.36;1683050;83;20578;-69
2021/04/16 05:56:15;;;;;;;;;;;;;;;5.08;82.89;97497.66;1674811;83;20486;-62
2021/04/16 05:58:43;;;;;;;;;;;;;;;5.21;80.92;97501.14;1674920;83;20233;-68
2021/04/16 06:01:11;;;;;;;;;;;;;;;5.30;78.89;97500.64;1686658;83;20497;-69
2021/04/16 06:03:39;;;;;;;;;;;;;;;5.41;79.64;97497.80;1687501;83;20795;-70
2021/04/16 06:06:07;;;;;;;;;;;;;;;5.52;77.07;97497.59;1675055;83;20588;-63
2021/04/16 06:08:36;;;;;;;;;;;;;;;5.62;75.68;97498.66;1683178;83;20577;-63
2021/04/16 06:11:04;;;;;;;;;;;;;;;5.69;74.71;97497.30;1692467;83;20595;-68
2021/04/16 06:13:32;;;;;;;;;;;;;;;5.78;74.88;97490.75;1697849;83;20481;-59
2021/04/16 06:16:02;;;;;;;;;;;;;;;5.87;73.73;97494.17;1690035;83;22006;-67
2021/04/16 06:18:30;;;;;;;;;;;;;;;5.97;74.19;97492.86;1690901;83;20279;-65
2021/04/16 06:20:57;;;;;;;;;;;;;;;6.05;72.01;97489.94;1691191;83;20494;-64
2021/04/16 06:23:25;;;;;;;;;;;;;;;6.10;70.40;97493.47;1689699;83;20492;-62
2021/04/16 06:25:53;;;;;;;;;;;;;;;6.18;71.42;97494.46;1691087;83;20628;-67
2021/04/16 06:28:22;;;;;;;;;;;;;;;6.25;71.92;97495.16;1695676;83;21978;-65
2021/04/16 06:30:50;;;;;;;;;;;;;;;6.34;69.78;97496.15;1699461;83;20564;-60
2021/04/16 06:33:30;;;;;;;;;;;;;;;6.41;69.82;97492.94;1692943;83;20494;-63
2021/04/16 06:36:04;;;;;;;;;;;;;;;6.48;69.15;97497.54;1685373;83;20527;-63
2021/04/16 06:38:35;;;;;;;;;;;;;;;6.54;68.25;97495.33;1689976;84;20821;-62
2021/04/16 06:41:06;;;;;;;;;;;;;;;6.57;68.17;97496.17;1689872;83;21907;-62
2021/04/16 06:43:42;;;;;;;;;;;;;;;6.62;68.02;97498.92;1691084;83;20605;-62
2021/04/16 06:46:13;;;;;;;;;;;;;;;6.62;66.27;97491.09;1660405;84;20844;-62
2021/04/16 06:48:42;;;;;;;;;;;;;;;6.63;66.23;97490.05;1666931;84;20492;-67
2021/04/16 06:51:11;;;;;;;;;;;;;;;6.67;67.68;97491.20;1675213;84;20611;-62
2021/04/16 06:53:57;;;;;;;;;;;;;;;6.71;66.68;97488.41;1678153;84;22137;-61
2021/04/16 06:56:37;;;;;;;;;;;;;;;6.76;67.15;97484.63;1660552;84;20483;-67
2021/04/16 06:59:10;;;;;;;;;;;;;;;6.82;66.56;97494.17;1655208;84;20451;-66
2021/04/16 07:01:45;;;;;;;;;;;;;;;6.86;66.71;97494.49;1646566;84;20686;-68
2021/04/16 07:04:35;;;;;;;;;;;;;;;6.92;66.55;97490.97;1630103;85;20603;-62
2021/04/16 07:07:22;;;;;;;;;;;;;;;6.96;66.10;97489.00;1641567;84;22089;-62
2021/04/16 07:09:53;;;;;;;;;;;;;;;7.02;66.27;97486.78;1630863;84;20626;-66
2021/04/16 07:12:23;;;;;;;;;;;;;;;7.06;63.93;97488.41;1627260;86;20484;-63
2021/04/16 07:14:54;;;;;;;;;;;;;;;7.09;64.82;97489.27;1621507;86;20520;-62
2021/04/16 07:17:25;;;;;;;;;;;;;;;7.14;65.03;97488.06;1645175;84;20172;-63
2021/04/16 07:19:53;;;;;;;;;;;;;;;7.23;64.45;97491.13;1639989;85;21205;-61
2021/04/16 07:22:38;;;;;;;;;;;;;;;7.32;65.31;97489.77;1642908;85;20480;-63
2021/04/16 07:25:38;;;;;;;;;;;;;;;7.43;65.05;97498.08;1623301;86;20487;-66
2021/04/16 07:28:08;;;;;;;;;;;;;;;7.57;64.86;97492.08;1608552;87;20502;-62
2021/04/16 07:30:46;;;;;;;;;;;;;;;7.72;63.99;97492.38;1619076;86;20833;-66
2021/04/16 07:33:34;;;;;;;;;;;;;;;7.81;63.42;97493.61;1605532;87;21752;-63
2021/04/16 07:36:23;;;;;;;;;;;;;;;7.88;62.34;97493.47;1627163;86;20731;-62
2021/04/16 07:39:03;;;;;;;;;;;;;;;7.93;60.87;97494.86;1629309;86;20305;-61
2021/04/16 07:41:43;;;;;;;;;;;;;;;7.95;60.26;97488.89;1600580;87;20575;-62
2021/04/16 07:44:34;;;;;;;;;;;;;;;7.98;60.33;97496.29;1672336;83;20750;-63
2021/04/16 07:47:15;;;;;;;;;;;;;;;8.04;60.15;97482.27;1676448;84;22109;-66
2021/04/16 07:49:59;;;;;;;;;;;;;;;8.11;59.59;97496.80;1677635;83;20490;-62
2021/04/16 07:52:39;;;;;;;;;;;;;;;8.19;58.83;97495.63;1673334;83;20614;-66
2021/04/16 07:55:29;;;;;;;;;;;;;;;8.24;59.23;97489.95;1668581;83;20514;-64
2021/04/16 07:58:03;;;;;;;;;;;;;;;8.34;60.24;97487.27;1660804;83;20645;-61
2021/04/16 08:00:36;;;;;;;;;;;;;;;8.47;59.92;97490.88;1658015;83;22131;-64
2021/04/16 08:03:17;;;;;;;;;;;;;;;8.54;59.17;97484.97;1685465;83;20375;-60
2021/04/16 08:05:51;;;;;;;;;;;;;;;8.57;59.91;97485.82;1685577;83;20198;-60
2021/04/16 08:08:27;;;;;;;;;;;;;;;8.67;59.92;97490.41;1687608;83;20629;-62
2021/04/16 08:11:02;;;;;;;;;;;;;;;8.77;59.06;97493.98;1689990;83;20804;-63
2021/04/16 08:13:46;;;;;;;;;;;;;;;8.84;58.73;97487.27;1684718;83;22089;-61
2021/04/16 08:16:20;;;;;;;;;;;;;;;8.91;57.90;97491.83;1684909;83;20405;-60
2021/04/16 08:19:09;;;;;;;;;;;;;;;8.96;57.70;97491.38;1698711;83;20525;-62
2021/04/16 08:21:46;;;;;;;;;;;;;;;8.98;56.83;97489.84;1679299;83;20316;-62
2021/04/16 08:24:52;;;;;;;;;;;;;;;9.03;55.48;97483.86;1685298;83;20490;-62
2021/04/16 08:27:53;;;;;;;;;;;;;;;9.06;55.26;97489.44;1626643;84;21898;-62
2021/04/16 08:30:24;;;;;;;;;;;;;;;9.14;55.34;97487.72;1650207;85;20655;-62
2021/04/16 08:33:07;;;;;;;;;;;;;;;9.19;55.61;97485.67;1655964;85;20523;-61
2021/04/16 08:35:52;;;;;;;;;;;;;;;9.21;55.44;97483.09;1641275;85;20492;-62
2021/04/16 08:38:21;;;;;;;;;;;;;;;9.22;55.16;97477.33;1654771;84;20900;-61
2021/04/16 08:40:50;;;;;;;;;;;;;;;9.25;55.20;97488.63;1645178;84;22084;-70
2021/04/16 08:43:36;;;;;;;;;;;;;;;9.24;54.33;97478.66;1648498;86;20488;-61
2021/04/16 08:46:26;;;;;;;;;;;;;;;9.26;54.03;97483.66;1620004;85;20320;-62
2021/04/16 08:48:57;;;;;;;;;;;;;;;9.27;54.78;97476.88;1645559;84;20264;-62
2021/04/16 08:51:27;;;;;;;;;;;;;;;9.28;54.28;97479.77;1653056;85;20627;-62
2021/04/16 08:54:08;;;;;;;;;;;;;;;9.33;54.40;97479.03;1632344;85;21936;-61
2021/04/16 08:56:43;;;;;;;;;;;;;;;9.35;52.76;97479.59;1649217;85;20744;-61
2021/04/16 08:59:13;;;;;;;;;;;;;;;9.33;53.12;97485.59;1653931;85;20488;-62
2021/04/16 09:01:54;;;;;;;;;;;;;;;9.32;53.13;97488.73;1655386;84;20587;-64
2021/04/16 09:04:32;;;;;;;;;;;;;;;9.33;52.17;97485.59;1661245;84;20723;-63
2021/04/16 09:07:00;;;;;;;;;;;;;;;9.29;53.08;97485.81;1658040;84;22432;-62
2021/04/16 09:09:40;;;;;;;;;;;;;;;9.29;53.60;97477.41;1657630;84;20612;-61
2021/04/16 09:12:22;;;;;;;;;;;;;;;;;;;;;
2021/04/16 09:14:53;;;;;;;;;;;;;;;9.44;52.64;97482.05;1819029;78;20702;-62
2021/04/16 09:17:25;;;;;;;;;;;;;;;9.42;52.17;97480.20;1780372;79;20462;-62
2021/04/16 09:19:57;;;;;;;;;;;;;;;9.45;52.66;97482.84;1634254;86;22047;-63
2021/04/16 09:22:37;;;;;;;;;;;;;;;9.52;52.49;97479.00;1744467;79;20537;-63
2021/04/16 09:25:05;;;;;;;;;;;;;;;9.55;52.17;97483.77;1788722;78;20448;-62
2021/04/16 09:27:44;;;;;;;;;;;;;;;9.58;51.95;97485.89;1793339;79;20350;-63
2021/04/16 09:30:21;;;;;;;;;;;;;;;9.62;51.76;97487.52;1784302;79;20704;-65
2021/04/16 09:32:57;;;;;;;;;;;;;;;9.69;51.67;97494.69;1786336;78;21861;-71
2021/04/16 09:35:32;;;;;;;;;;;;;;;9.72;50.91;97485.03;1781742;79;20471;-64
2021/04/16 09:38:33;;;;;;;;;;;;;;;9.71;50.97;97490.00;1774023;79;20399;-64
2021/04/16 09:41:20;;;;;;;;;;;;;;;9.67;50.44;97490.99;1784042;79;20550;-63
2021/04/16 09:44:00;;;;;;;;;;;;;;;9.61;50.56;97484.63;1741458;79;20680;-64
2021/04/16 09:46:35;;;;;;;;;;;;;;;9.54;50.47;97490.57;1779780;78;22156;-62
2021/04/16 10:14:37;;;;;;;;;;;;;;;9.64;50.52;97489.39;1769926;79;20633;-63
2021/04/16 10:17:18;;;;;;;;;;;;;;;9.63;50.12;97487.28;1759561;78;20624;-65
2021/04/16 10:19:50;;;;;;;;;;;;;;;9.66;50.83;97493.86;1742912;80;20486;-62
2021/04/16 10:22:29;;;;;;;;;;;;;;;9.72;50.80;97492.91;1731014;81;20620;-63
2021/04/16 10:26:09;;;;;;;;;;;;;;;9.76;49.80;97485.59;1768167;80;20231;-62
2021/04/16 10:58:04;;;;;;;;;;;;;;;9.72;50.13;97505.51;1775876;79;20476;-61
2021/04/16 12:38:34;;;;;;;;;;;;;;;10.53;48.53;97573.86;1678989;83;20762;-61
2021/04/16 12:41:00;;;;;;;;;;;;;;;10.59;48.41;97563.66;1674527;83;22075;-61
2021/04/16 12:43:28;;;;;;;;;;;;;;;10.65;47.68;97566.64;1665340;83;20796;-62
2021/04/16 12:45:57;;;;;;;;;;;;;;;10.70;48.53;97567.19;1665950;84;20587;-65
2021/04/16 12:48:25;;;;;;;;;;;;;;;10.79;48.28;97564.39;1670413;84;20537;-62
2021/04/16 12:50:54;;;;;;;;;;;;;;;10.87;48.54;97560.78;1662493;83;20598;-61
2021/04/16 12:53:22;;;;;;;;;;;;;;;10.95;47.79;97558.98;1663349;83;22064;-63
2021/04/16 12:55:50;;;;;;;;;;;;;;;11.00;47.88;97561.39;1664589;84;20500;-60
